sensor_id;sensor_type;location;lat;lon;timestamp;temperature;humidity
70830;SHT30;58451;51.550;7.208;2023-02-26T00:00:05;0.32;74.52
70830;SHT30;58451;51.550;7.208;2023-02-26T00:01:43;0.30;74.55
70830;SHT30;58451;51.550;7.208;2023-02-26T00:03:15;0.29;74.57
70830;SHT30;58451;51.550;7.208;2023-02-26T00:04:47;0.27;74.70
70830;SHT30;58451;51.550;7.208;2023-02-26T00:06:19;0.27;74.67
70830;SHT30;58451;51.550;7.208;2023-02-26T00:07:51;0.26;74.68
70830;SHT30;58451;51.550;7.208;2023-02-26T00:09:23;0.25;74.83
70830;SHT30;58451;51.550;7.208;2023-02-26T00:10:56;0.23;74.87
70830;SHT30;58451;51.550;7.208;2023-02-26T00:12:29;0.22;74.87
70830;SHT30;58451;51.550;7.208;2023-02-26T00:14:01;0.22;74.72
70830;SHT30;58451;51.550;7.208;2023-02-26T00:15:33;0.22;74.92
70830;SHT30;58451;51.550;7.208;2023-02-26T00:18:52;0.20;74.80
70830;SHT30;58451;51.550;7.208;2023-02-26T00:20:26;0.21;74.95
70830;SHT30;58451;51.550;7.208;2023-02-26T00:21:58;0.21;74.93
70830;SHT30;58451;51.550;7.208;2023-02-26T00:23:30;0.21;74.87
70830;SHT30;58451;51.550;7.208;2023-02-26T00:25:02;0.22;74.93
70830;SHT30;58451;51.550;7.208;2023-02-26T00:26:34;0.23;74.93
70830;SHT30;58451;51.550;7.208;2023-02-26T00:28:07;0.21;75.03
70830;SHT30;58451;51.550;7.208;2023-02-26T00:29:39;0.22;75.02
70830;SHT30;58451;51.550;7.208;2023-02-26T00:31:13;0.24;75.10
70830;SHT30;58451;51.550;7.208;2023-02-26T00:32:47;0.28;75.13
70830;SHT30;58451;51.550;7.208;2023-02-26T00:34:19;0.32;75.18
70830;SHT30;58451;51.550;7.208;2023-02-26T00:35:52;0.38;75.08
70830;SHT30;58451;51.550;7.208;2023-02-26T00:37:40;0.44;74.75
70830;SHT30;58451;51.550;7.208;2023-02-26T00:41:21;0.55;74.77
70830;SHT30;58451;51.550;7.208;2023-02-26T00:42:53;0.59;74.77
70830;SHT30;58451;51.550;7.208;2023-02-26T00:44:25;0.63;74.62
70830;SHT30;58451;51.550;7.208;2023-02-26T00:46:09;0.68;74.50
70830;SHT30;58451;51.550;7.208;2023-02-26T00:50:30;0.80;73.60
70830;SHT30;58451;51.550;7.208;2023-02-26T00:52:04;0.85;73.55
70830;SHT30;58451;51.550;7.208;2023-02-26T00:55:38;0.94;73.72
70830;SHT30;58451;51.550;7.208;2023-02-26T00:57:09;0.96;73.40
70830;SHT30;58451;51.550;7.208;2023-02-26T00:58:42;0.97;73.18
70830;SHT30;58451;51.550;7.208;2023-02-26T01:00:14;1.00;72.98
70830;SHT30;58451;51.550;7.208;2023-02-26T01:01:47;1.02;72.80
70830;SHT30;58451;51.550;7.208;2023-02-26T01:03:20;1.04;73.28
70830;SHT30;58451;51.550;7.208;2023-02-26T01:04:52;1.07;73.10
70830;SHT30;58451;51.550;7.208;2023-02-26T01:06:26;1.07;73.15
70830;SHT30;58451;51.550;7.208;2023-02-26T01:08:13;1.09;73.37
70830;SHT30;58451;51.550;7.208;2023-02-26T01:09:58;1.10;73.27
70830;SHT30;58451;51.550;7.208;2023-02-26T01:11:32;1.11;73.25
70830;SHT30;58451;51.550;7.208;2023-02-26T01:13:06;1.11;73.18
70830;SHT30;58451;51.550;7.208;2023-02-26T01:14:39;1.10;73.43
70830;SHT30;58451;51.550;7.208;2023-02-26T01:16:13;1.09;73.28
70830;SHT30;58451;51.550;7.208;2023-02-26T01:17:59;1.10;72.87
70830;SHT30;58451;51.550;7.208;2023-02-26T01:19:53;1.08;72.77
70830;SHT30;58451;51.550;7.208;2023-02-26T01:21:35;1.08;72.87
70830;SHT30;58451;51.550;7.208;2023-02-26T01:23:17;1.06;72.93
70830;SHT30;58451;51.550;7.208;2023-02-26T01:24:58;1.05;72.07
70830;SHT30;58451;51.550;7.208;2023-02-26T01:26:37;1.03;72.15
70830;SHT30;58451;51.550;7.208;2023-02-26T01:28:09;1.02;72.37
70830;SHT30;58451;51.550;7.208;2023-02-26T01:29:41;1.00;72.52
70830;SHT30;58451;51.550;7.208;2023-02-26T01:33:54;0.91;71.85
70830;SHT30;58451;51.550;7.208;2023-02-26T01:42:43;0.80;72.00
70830;SHT30;58451;51.550;7.208;2023-02-26T01:46:21;0.73;72.05
70830;SHT30;58451;51.550;7.208;2023-02-26T01:49:47;0.69;71.70
70830;SHT30;58451;51.550;7.208;2023-02-26T01:53:23;0.65;71.78
70830;SHT30;58451;51.550;7.208;2023-02-26T01:54:56;0.64;71.63
70830;SHT30;58451;51.550;7.208;2023-02-26T01:56:28;0.61;71.33
70830;SHT30;58451;51.550;7.208;2023-02-26T01:58:00;0.62;71.55
70830;SHT30;58451;51.550;7.208;2023-02-26T01:59:35;0.58;71.38
70830;SHT30;58451;51.550;7.208;2023-02-26T02:01:12;0.57;71.60
70830;SHT30;58451;51.550;7.208;2023-02-26T02:02:44;0.55;71.27
70830;SHT30;58451;51.550;7.208;2023-02-26T02:04:16;0.54;71.47
70830;SHT30;58451;51.550;7.208;2023-02-26T02:05:54;0.51;71.62
70830;SHT30;58451;51.550;7.208;2023-02-26T02:07:33;0.50;71.55
70830;SHT30;58451;51.550;7.208;2023-02-26T02:09:05;0.47;71.72
70830;SHT30;58451;51.550;7.208;2023-02-26T02:10:40;0.43;71.68
70830;SHT30;58451;51.550;7.208;2023-02-26T02:18:17;0.29;71.78
70830;SHT30;58451;51.550;7.208;2023-02-26T02:22:14;0.25;72.02
70830;SHT30;58451;51.550;7.208;2023-02-26T02:24:00;0.21;72.25
70830;SHT30;58451;51.550;7.208;2023-02-26T02:30:34;0.13;72.27
70830;SHT30;58451;51.550;7.208;2023-02-26T02:32:20;0.12;72.35
70830;SHT30;58451;51.550;7.208;2023-02-26T02:34:02;0.09;72.62
70830;SHT30;58451;51.550;7.208;2023-02-26T02:36:00;0.07;72.43
70830;SHT30;58451;51.550;7.208;2023-02-26T02:39:43;0.03;72.38
70830;SHT30;58451;51.550;7.208;2023-02-26T02:41:32;0.01;72.75
70830;SHT30;58451;51.550;7.208;2023-02-26T02:43:15;-0.00;72.73
70830;SHT30;58451;51.550;7.208;2023-02-26T02:44:59;-0.03;72.88
70830;SHT30;58451;51.550;7.208;2023-02-26T02:46:39;-0.05;72.80
70830;SHT30;58451;51.550;7.208;2023-02-26T02:48:37;-0.07;73.00
70830;SHT30;58451;51.550;7.208;2023-02-26T02:50:36;-0.10;73.03
70830;SHT30;58451;51.550;7.208;2023-02-26T02:52:16;-0.13;73.15
70830;SHT30;58451;51.550;7.208;2023-02-26T02:54:26;-0.16;73.27
70830;SHT30;58451;51.550;7.208;2023-02-26T02:58:29;-0.18;73.20
70830;SHT30;58451;51.550;7.208;2023-02-26T03:00:08;-0.21;73.37
70830;SHT30;58451;51.550;7.208;2023-02-26T03:01:43;-0.22;73.50
70830;SHT30;58451;51.550;7.208;2023-02-26T03:03:21;-0.24;73.43
70830;SHT30;58451;51.550;7.208;2023-02-26T03:05:01;-0.28;73.53
70830;SHT30;58451;51.550;7.208;2023-02-26T03:06:34;-0.29;73.73
70830;SHT30;58451;51.550;7.208;2023-02-26T03:08:10;-0.31;73.85
70830;SHT30;58451;51.550;7.208;2023-02-26T03:09:49;-0.34;73.85
70830;SHT30;58451;51.550;7.208;2023-02-26T03:11:22;-0.35;74.08
70830;SHT30;58451;51.550;7.208;2023-02-26T03:12:54;-0.36;74.02
70830;SHT30;58451;51.550;7.208;2023-02-26T03:14:26;-0.38;74.13
70830;SHT30;58451;51.550;7.208;2023-02-26T03:26:14;-0.59;74.32
70830;SHT30;58451;51.550;7.208;2023-02-26T03:28:10;-0.60;74.43
70830;SHT30;58451;51.550;7.208;2023-02-26T03:33:33;-0.67;74.33
70830;SHT30;58451;51.550;7.208;2023-02-26T03:37:24;-0.72;74.52
70830;SHT30;58451;51.550;7.208;2023-02-26T03:39:13;-0.74;74.73
70830;SHT30;58451;51.550;7.208;2023-02-26T03:40:54;-0.78;74.88
70830;SHT30;58451;51.550;7.208;2023-02-26T03:42:50;-0.77;75.12
70830;SHT30;58451;51.550;7.208;2023-02-26T03:44:36;-0.77;75.20
70830;SHT30;58451;51.550;7.208;2023-02-26T03:46:33;-0.77;75.10
70830;SHT30;58451;51.550;7.208;2023-02-26T03:48:14;-0.79;75.13
70830;SHT30;58451;51.550;7.208;2023-02-26T03:49:58;-0.80;75.33
70830;SHT30;58451;51.550;7.208;2023-02-26T03:51:59;-0.79;75.32
70830;SHT30;58451;51.550;7.208;2023-02-26T03:53:55;-0.81;75.28
70830;SHT30;58451;51.550;7.208;2023-02-26T03:57:47;-0.84;75.63
70830;SHT30;58451;51.550;7.208;2023-02-26T03:59:30;-0.84;75.63
70830;SHT30;58451;51.550;7.208;2023-02-26T04:01:18;-0.82;75.75
70830;SHT30;58451;51.550;7.208;2023-02-26T04:03:00;-0.82;75.80
70830;SHT30;58451;51.550;7.208;2023-02-26T04:06:18;-0.81;75.87
70830;SHT30;58451;51.550;7.208;2023-02-26T04:07:51;-0.81;75.90
70830;SHT30;58451;51.550;7.208;2023-02-26T04:09:24;-0.81;75.93
70830;SHT30;58451;51.550;7.208;2023-02-26T04:10:58;-0.80;76.02
70830;SHT30;58451;51.550;7.208;2023-02-26T04:12:40;-0.79;75.97
70830;SHT30;58451;51.550;7.208;2023-02-26T04:14:13;-0.81;75.98
70830;SHT30;58451;51.550;7.208;2023-02-26T04:15:45;-0.81;76.05
70830;SHT30;58451;51.550;7.208;2023-02-26T04:17:17;-0.83;76.03
70830;SHT30;58451;51.550;7.208;2023-02-26T04:18:49;-0.83;76.20
70830;SHT30;58451;51.550;7.208;2023-02-26T04:20:21;-0.83;76.17
70830;SHT30;58451;51.550;7.208;2023-02-26T04:21:53;-0.83;76.20
70830;SHT30;58451;51.550;7.208;2023-02-26T04:23:25;-0.83;76.13
70830;SHT30;58451;51.550;7.208;2023-02-26T04:24:56;-0.84;76.22
70830;SHT30;58451;51.550;7.208;2023-02-26T04:26:28;-0.85;76.23
70830;SHT30;58451;51.550;7.208;2023-02-26T04:28:00;-0.87;76.27
70830;SHT30;58451;51.550;7.208;2023-02-26T04:29:32;-0.88;76.32
70830;SHT30;58451;51.550;7.208;2023-02-26T04:31:04;-0.89;76.45
70830;SHT30;58451;51.550;7.208;2023-02-26T04:32:37;-0.89;76.48
70830;SHT30;58451;51.550;7.208;2023-02-26T04:34:10;-0.89;76.23
70830;SHT30;58451;51.550;7.208;2023-02-26T04:35:42;-0.92;76.33
70830;SHT30;58451;51.550;7.208;2023-02-26T04:37:14;-0.92;76.32
70830;SHT30;58451;51.550;7.208;2023-02-26T04:38:46;-0.91;76.30
70830;SHT30;58451;51.550;7.208;2023-02-26T04:40:19;-0.93;76.42
70830;SHT30;58451;51.550;7.208;2023-02-26T04:41:51;-0.94;76.48
70830;SHT30;58451;51.550;7.208;2023-02-26T04:43:23;-0.96;76.48
70830;SHT30;58451;51.550;7.208;2023-02-26T04:45:05;-0.96;76.48
70830;SHT30;58451;51.550;7.208;2023-02-26T04:46:39;-0.98;76.62
70830;SHT30;58451;51.550;7.208;2023-02-26T04:48:11;-0.99;76.57
70830;SHT30;58451;51.550;7.208;2023-02-26T04:49:43;-1.02;76.62
70830;SHT30;58451;51.550;7.208;2023-02-26T04:51:15;-1.02;76.73
70830;SHT30;58451;51.550;7.208;2023-02-26T04:52:48;-1.02;76.65
70830;SHT30;58451;51.550;7.208;2023-02-26T04:54:20;-1.03;76.73
70830;SHT30;58451;51.550;7.208;2023-02-26T04:55:52;-1.03;76.68
70830;SHT30;58451;51.550;7.208;2023-02-26T04:57:23;-1.05;76.65
70830;SHT30;58451;51.550;7.208;2023-02-26T04:58:55;-1.03;76.68
70830;SHT30;58451;51.550;7.208;2023-02-26T05:00:30;-1.04;76.60
70830;SHT30;58451;51.550;7.208;2023-02-26T05:02:02;-1.05;76.80
70830;SHT30;58451;51.550;7.208;2023-02-26T05:03:34;-1.06;76.68
70830;SHT30;58451;51.550;7.208;2023-02-26T05:05:06;-1.07;76.70
70830;SHT30;58451;51.550;7.208;2023-02-26T05:06:38;-1.07;76.65
70830;SHT30;58451;51.550;7.208;2023-02-26T05:08:10;-1.09;76.55
70830;SHT30;58451;51.550;7.208;2023-02-26T05:09:42;-1.10;76.55
70830;SHT30;58451;51.550;7.208;2023-02-26T05:11:14;-1.12;76.77
70830;SHT30;58451;51.550;7.208;2023-02-26T05:12:46;-1.13;76.57
70830;SHT30;58451;51.550;7.208;2023-02-26T05:14:18;-1.11;76.57
70830;SHT30;58451;51.550;7.208;2023-02-26T05:15:54;-1.10;76.52
70830;SHT30;58451;51.550;7.208;2023-02-26T05:17:26;-1.09;76.63
70830;SHT30;58451;51.550;7.208;2023-02-26T05:18:58;-1.10;76.52
70830;SHT30;58451;51.550;7.208;2023-02-26T05:20:30;-1.11;76.63
70830;SHT30;58451;51.550;7.208;2023-02-26T05:22:02;-1.13;76.58
70830;SHT30;58451;51.550;7.208;2023-02-26T05:23:34;-1.13;76.65
70830;SHT30;58451;51.550;7.208;2023-02-26T05:25:06;-1.14;76.80
70830;SHT30;58451;51.550;7.208;2023-02-26T05:26:39;-1.16;76.67
70830;SHT30;58451;51.550;7.208;2023-02-26T05:28:11;-1.14;76.17
70830;SHT30;58451;51.550;7.208;2023-02-26T05:29:42;-1.13;76.47
70830;SHT30;58451;51.550;7.208;2023-02-26T05:31:16;-1.14;76.40
70830;SHT30;58451;51.550;7.208;2023-02-26T05:32:48;-1.13;76.52
70830;SHT30;58451;51.550;7.208;2023-02-26T05:34:20;-1.13;76.52
70830;SHT30;58451;51.550;7.208;2023-02-26T05:35:52;-1.12;76.43
70830;SHT30;58451;51.550;7.208;2023-02-26T05:37:24;-1.12;76.40
70830;SHT30;58451;51.550;7.208;2023-02-26T05:38:55;-1.11;76.37
70830;SHT30;58451;51.550;7.208;2023-02-26T05:40:28;-1.10;76.32
70830;SHT30;58451;51.550;7.208;2023-02-26T05:42:00;-1.09;76.35
70830;SHT30;58451;51.550;7.208;2023-02-26T05:43:32;-1.10;76.47
70830;SHT30;58451;51.550;7.208;2023-02-26T05:45:04;-1.11;76.35
70830;SHT30;58451;51.550;7.208;2023-02-26T05:46:37;-1.11;76.17
70830;SHT30;58451;51.550;7.208;2023-02-26T05:48:09;-1.10;76.10
70830;SHT30;58451;51.550;7.208;2023-02-26T05:49:41;-1.10;76.22
70830;SHT30;58451;51.550;7.208;2023-02-26T05:51:13;-1.10;76.28
70830;SHT30;58451;51.550;7.208;2023-02-26T05:52:45;-1.10;76.15
70830;SHT30;58451;51.550;7.208;2023-02-26T05:54:16;-1.09;76.07
70830;SHT30;58451;51.550;7.208;2023-02-26T05:55:48;-1.08;75.85
70830;SHT30;58451;51.550;7.208;2023-02-26T05:57:21;-1.07;76.08
70830;SHT30;58451;51.550;7.208;2023-02-26T05:58:53;-1.09;76.17
70830;SHT30;58451;51.550;7.208;2023-02-26T06:00:25;-1.11;76.25
70830;SHT30;58451;51.550;7.208;2023-02-26T06:01:58;-1.12;76.23
70830;SHT30;58451;51.550;7.208;2023-02-26T06:03:29;-1.12;76.38
70830;SHT30;58451;51.550;7.208;2023-02-26T06:05:01;-1.14;76.45
70830;SHT30;58451;51.550;7.208;2023-02-26T06:06:33;-1.17;76.23
70830;SHT30;58451;51.550;7.208;2023-02-26T06:08:06;-1.16;76.05
70830;SHT30;58451;51.550;7.208;2023-02-26T06:09:38;-1.15;76.05
70830;SHT30;58451;51.550;7.208;2023-02-26T06:11:09;-1.14;76.18
70830;SHT30;58451;51.550;7.208;2023-02-26T06:12:41;-1.14;76.22
70830;SHT30;58451;51.550;7.208;2023-02-26T06:14:13;-1.16;76.28
70830;SHT30;58451;51.550;7.208;2023-02-26T06:15:46;-1.16;76.20
70830;SHT30;58451;51.550;7.208;2023-02-26T06:17:22;-1.16;76.38
70830;SHT30;58451;51.550;7.208;2023-02-26T06:18:54;-1.17;76.20
70830;SHT30;58451;51.550;7.208;2023-02-26T06:20:25;-1.16;76.22
70830;SHT30;58451;51.550;7.208;2023-02-26T06:21:58;-1.15;76.12
70830;SHT30;58451;51.550;7.208;2023-02-26T06:23:30;-1.15;76.32
70830;SHT30;58451;51.550;7.208;2023-02-26T06:25:02;-1.15;76.28
70830;SHT30;58451;51.550;7.208;2023-02-26T06:26:34;-1.15;76.30
70830;SHT30;58451;51.550;7.208;2023-02-26T06:28:06;-1.14;76.18
70830;SHT30;58451;51.550;7.208;2023-02-26T06:29:38;-1.14;76.07
70830;SHT30;58451;51.550;7.208;2023-02-26T06:31:10;-1.12;76.02
70830;SHT30;58451;51.550;7.208;2023-02-26T06:32:41;-1.11;75.87
70830;SHT30;58451;51.550;7.208;2023-02-26T06:34:14;-1.10;75.95
70830;SHT30;58451;51.550;7.208;2023-02-26T06:35:46;-1.09;76.12
70830;SHT30;58451;51.550;7.208;2023-02-26T06:37:18;-1.08;75.87
70830;SHT30;58451;51.550;7.208;2023-02-26T06:38:50;-1.04;75.68
70830;SHT30;58451;51.550;7.208;2023-02-26T06:40:22;-1.04;75.50
70830;SHT30;58451;51.550;7.208;2023-02-26T06:41:54;-1.01;75.65
70830;SHT30;58451;51.550;7.208;2023-02-26T06:43:25;-1.02;75.83
70830;SHT30;58451;51.550;7.208;2023-02-26T06:44:57;-1.01;75.78
70830;SHT30;58451;51.550;7.208;2023-02-26T06:46:29;-1.00;75.85
70830;SHT30;58451;51.550;7.208;2023-02-26T06:48:01;-1.01;76.03
70830;SHT30;58451;51.550;7.208;2023-02-26T06:49:33;-0.99;76.10
70830;SHT30;58451;51.550;7.208;2023-02-26T06:51:05;-0.99;76.13
70830;SHT30;58451;51.550;7.208;2023-02-26T06:52:38;-1.00;76.10
70830;SHT30;58451;51.550;7.208;2023-02-26T06:54:09;-1.00;75.97
70830;SHT30;58451;51.550;7.208;2023-02-26T06:55:44;-0.99;76.05
70830;SHT30;58451;51.550;7.208;2023-02-26T06:57:19;-1.00;76.05
70830;SHT30;58451;51.550;7.208;2023-02-26T06:58:51;-0.99;76.20
70830;SHT30;58451;51.550;7.208;2023-02-26T07:00:24;-0.98;75.82
70830;SHT30;58451;51.550;7.208;2023-02-26T07:01:56;-0.95;76.00
70830;SHT30;58451;51.550;7.208;2023-02-26T07:03:28;-0.92;76.05
70830;SHT30;58451;51.550;7.208;2023-02-26T07:05:00;-0.88;75.80
70830;SHT30;58451;51.550;7.208;2023-02-26T07:06:32;-0.86;75.87
70830;SHT30;58451;51.550;7.208;2023-02-26T07:08:04;-0.81;75.88
70830;SHT30;58451;51.550;7.208;2023-02-26T07:09:36;-0.76;75.55
70830;SHT30;58451;51.550;7.208;2023-02-26T07:11:08;-0.72;75.73
70830;SHT30;58451;51.550;7.208;2023-02-26T07:12:40;-0.67;75.63
70830;SHT30;58451;51.550;7.208;2023-02-26T07:14:12;-0.62;75.62
70830;SHT30;58451;51.550;7.208;2023-02-26T07:15:44;-0.57;75.62
70830;SHT30;58451;51.550;7.208;2023-02-26T07:17:16;-0.54;75.37
70830;SHT30;58451;51.550;7.208;2023-02-26T07:18:51;-0.46;75.53
70830;SHT30;58451;51.550;7.208;2023-02-26T07:20:22;-0.29;75.13
70830;SHT30;58451;51.550;7.208;2023-02-26T07:21:54;-0.10;74.98
70830;SHT30;58451;51.550;7.208;2023-02-26T07:23:26;0.05;75.25
70830;SHT30;58451;51.550;7.208;2023-02-26T07:24:58;0.39;74.88
70830;SHT30;58451;51.550;7.208;2023-02-26T07:26:30;0.80;74.70
70830;SHT30;58451;51.550;7.208;2023-02-26T07:28:03;1.12;74.18
70830;SHT30;58451;51.550;7.208;2023-02-26T07:29:35;1.13;73.72
70830;SHT30;58451;51.550;7.208;2023-02-26T07:31:07;0.93;73.80
70830;SHT30;58451;51.550;7.208;2023-02-26T07:32:39;0.79;72.85
70830;SHT30;58451;51.550;7.208;2023-02-26T07:34:11;0.75;73.35
70830;SHT30;58451;51.550;7.208;2023-02-26T07:35:46;0.74;73.40
70830;SHT30;58451;51.550;7.208;2023-02-26T07:37:18;0.73;73.35
70830;SHT30;58451;51.550;7.208;2023-02-26T07:38:50;0.69;73.35
70830;SHT30;58451;51.550;7.208;2023-02-26T07:40:22;0.66;73.03
70830;SHT30;58451;51.550;7.208;2023-02-26T07:41:53;0.63;73.33
70830;SHT30;58451;51.550;7.208;2023-02-26T07:43:25;0.62;72.32
70830;SHT30;58451;51.550;7.208;2023-02-26T07:44:57;0.58;72.30
70830;SHT30;58451;51.550;7.208;2023-02-26T07:46:30;0.57;72.57
70830;SHT30;58451;51.550;7.208;2023-02-26T07:48:01;0.58;73.08
70830;SHT30;58451;51.550;7.208;2023-02-26T07:49:34;0.61;73.30
70830;SHT30;58451;51.550;7.208;2023-02-26T07:51:06;0.63;72.73
70830;SHT30;58451;51.550;7.208;2023-02-26T07:52:38;0.66;72.98
70830;SHT30;58451;51.550;7.208;2023-02-26T07:54:11;0.67;72.37
70830;SHT30;58451;51.550;7.208;2023-02-26T07:55:44;0.67;71.88
70830;SHT30;58451;51.550;7.208;2023-02-26T07:57:15;0.69;72.18
70830;SHT30;58451;51.550;7.208;2023-02-26T07:58:48;0.71;72.33
70830;SHT30;58451;51.550;7.208;2023-02-26T08:00:20;0.72;71.82
70830;SHT30;58451;51.550;7.208;2023-02-26T08:01:52;0.74;71.77
70830;SHT30;58451;51.550;7.208;2023-02-26T08:03:24;0.76;71.95
70830;SHT30;58451;51.550;7.208;2023-02-26T08:04:56;0.79;71.90
70830;SHT30;58451;51.550;7.208;2023-02-26T08:06:28;0.85;71.78
70830;SHT30;58451;51.550;7.208;2023-02-26T08:08:00;0.91;72.33
70830;SHT30;58451;51.550;7.208;2023-02-26T08:09:33;0.94;72.08
70830;SHT30;58451;51.550;7.208;2023-02-26T08:11:05;1.00;72.05
70830;SHT30;58451;51.550;7.208;2023-02-26T08:12:37;1.03;71.07
70830;SHT30;58451;51.550;7.208;2023-02-26T08:14:10;1.08;71.23
70830;SHT30;58451;51.550;7.208;2023-02-26T08:15:42;1.12;70.65
70830;SHT30;58451;51.550;7.208;2023-02-26T08:17:14;1.13;69.93
70830;SHT30;58451;51.550;7.208;2023-02-26T08:18:46;1.14;70.02
70830;SHT30;58451;51.550;7.208;2023-02-26T08:20:18;1.21;70.78
70830;SHT30;58451;51.550;7.208;2023-02-26T08:21:50;1.27;70.77
70830;SHT30;58451;51.550;7.208;2023-02-26T08:23:22;1.33;70.58
70830;SHT30;58451;51.550;7.208;2023-02-26T08:24:54;1.36;69.40
70830;SHT30;58451;51.550;7.208;2023-02-26T08:26:26;1.38;69.57
70830;SHT30;58451;51.550;7.208;2023-02-26T08:27:59;1.42;69.17
70830;SHT30;58451;51.550;7.208;2023-02-26T08:29:32;1.46;69.35
70830;SHT30;58451;51.550;7.208;2023-02-26T08:31:03;1.49;69.75
70830;SHT30;58451;51.550;7.208;2023-02-26T08:32:36;1.52;70.10
70830;SHT30;58451;51.550;7.208;2023-02-26T08:34:13;1.61;69.93
70830;SHT30;58451;51.550;7.208;2023-02-26T08:35:45;1.66;68.93
70830;SHT30;58451;51.550;7.208;2023-02-26T08:37:17;1.72;68.63
70830;SHT30;58451;51.550;7.208;2023-02-26T08:38:52;1.75;68.90
70830;SHT30;58451;51.550;7.208;2023-02-26T08:40:23;1.78;67.72
70830;SHT30;58451;51.550;7.208;2023-02-26T08:41:55;1.80;67.40
70830;SHT30;58451;51.550;7.208;2023-02-26T08:43:28;1.83;67.47
70830;SHT30;58451;51.550;7.208;2023-02-26T08:45:00;1.85;67.53
70830;SHT30;58451;51.550;7.208;2023-02-26T08:46:32;1.87;67.57
70830;SHT30;58451;51.550;7.208;2023-02-26T08:48:04;1.96;67.95
70830;SHT30;58451;51.550;7.208;2023-02-26T08:49:35;2.03;68.43
70830;SHT30;58451;51.550;7.208;2023-02-26T08:51:07;2.10;68.25
70830;SHT30;58451;51.550;7.208;2023-02-26T08:52:39;2.16;67.88
70830;SHT30;58451;51.550;7.208;2023-02-26T08:54:11;2.20;66.92
70830;SHT30;58451;51.550;7.208;2023-02-26T08:55:46;2.22;67.23
70830;SHT30;58451;51.550;7.208;2023-02-26T08:57:20;2.26;67.23
70830;SHT30;58451;51.550;7.208;2023-02-26T08:58:51;2.30;67.80
70830;SHT30;58451;51.550;7.208;2023-02-26T09:00:24;2.38;67.83
70830;SHT30;58451;51.550;7.208;2023-02-26T09:01:55;2.43;66.05
70830;SHT30;58451;51.550;7.208;2023-02-26T09:03:27;2.46;66.17
70830;SHT30;58451;51.550;7.208;2023-02-26T09:04:59;2.48;66.45
70830;SHT30;58451;51.550;7.208;2023-02-26T09:06:31;2.53;65.87
70830;SHT30;58451;51.550;7.208;2023-02-26T09:08:03;2.57;65.38
70830;SHT30;58451;51.550;7.208;2023-02-26T09:09:35;2.62;65.93
70830;SHT30;58451;51.550;7.208;2023-02-26T09:11:07;2.64;65.70
70830;SHT30;58451;51.550;7.208;2023-02-26T09:12:39;2.68;65.05
70830;SHT30;58451;51.550;7.208;2023-02-26T09:14:11;2.72;64.77
70830;SHT30;58451;51.550;7.208;2023-02-26T09:15:44;2.73;64.12
70830;SHT30;58451;51.550;7.208;2023-02-26T09:17:19;2.77;64.97
70830;SHT30;58451;51.550;7.208;2023-02-26T09:18:51;2.82;65.38
70830;SHT30;58451;51.550;7.208;2023-02-26T09:20:22;2.88;64.87
70830;SHT30;58451;51.550;7.208;2023-02-26T09:21:54;2.91;63.82
70830;SHT30;58451;51.550;7.208;2023-02-26T09:23:26;2.95;64.83
70830;SHT30;58451;51.550;7.208;2023-02-26T09:24:58;3.02;64.48
70830;SHT30;58451;51.550;7.208;2023-02-26T09:26:30;3.03;63.27
70830;SHT30;58451;51.550;7.208;2023-02-26T09:28:02;3.06;63.87
70830;SHT30;58451;51.550;7.208;2023-02-26T09:29:35;3.09;64.55
70830;SHT30;58451;51.550;7.208;2023-02-26T09:31:08;3.15;64.35
70830;SHT30;58451;51.550;7.208;2023-02-26T09:32:40;3.20;65.05
70830;SHT30;58451;51.550;7.208;2023-02-26T09:34:11;3.28;64.27
70830;SHT30;58451;51.550;7.208;2023-02-26T09:35:46;3.34;62.22
70830;SHT30;58451;51.550;7.208;2023-02-26T09:37:19;3.33;62.52
70830;SHT30;58451;51.550;7.208;2023-02-26T09:38:51;3.36;62.82
70830;SHT30;58451;51.550;7.208;2023-02-26T09:42:39;3.39;62.00
70830;SHT30;58451;51.550;7.208;2023-02-26T09:44:31;3.48;62.53
70830;SHT30;58451;51.550;7.208;2023-02-26T09:46:12;3.58;62.28
70830;SHT30;58451;51.550;7.208;2023-02-26T09:47:55;3.63;61.58
70830;SHT30;58451;51.550;7.208;2023-02-26T09:51:32;3.68;61.10
70830;SHT30;58451;51.550;7.208;2023-02-26T09:54:54;3.83;62.68
70830;SHT30;58451;51.550;7.208;2023-02-26T09:56:31;3.89;62.08
70830;SHT30;58451;51.550;7.208;2023-02-26T09:58:10;4.00;62.15
70830;SHT30;58451;51.550;7.208;2023-02-26T09:59:51;4.07;60.20
70830;SHT30;58451;51.550;7.208;2023-02-26T10:03:09;3.97;59.17
70830;SHT30;58451;51.550;7.208;2023-02-26T10:09:03;3.91;58.82
70830;SHT30;58451;51.550;7.208;2023-02-26T10:12:33;4.09;56.70
70830;SHT30;58451;51.550;7.208;2023-02-26T10:14:11;4.11;57.22
70830;SHT30;58451;51.550;7.208;2023-02-26T10:16:13;4.28;56.85
70830;SHT30;58451;51.550;7.208;2023-02-26T10:19:37;4.38;57.25
70830;SHT30;58451;51.550;7.208;2023-02-26T10:21:19;4.48;55.67
70830;SHT30;58451;51.550;7.208;2023-02-26T10:23:06;4.52;55.17
70830;SHT30;58451;51.550;7.208;2023-02-26T10:24:48;4.55;54.83
70830;SHT30;58451;51.550;7.208;2023-02-26T10:28:23;4.62;55.75
70830;SHT30;58451;51.550;7.208;2023-02-26T10:30:29;4.73;53.62
70830;SHT30;58451;51.550;7.208;2023-02-26T10:36:01;4.79;55.25
70830;SHT30;58451;51.550;7.208;2023-02-26T10:37:55;4.94;53.85
70830;SHT30;58451;51.550;7.208;2023-02-26T10:39:40;4.99;52.67
70830;SHT30;58451;51.550;7.208;2023-02-26T10:41:19;5.04;54.27
70830;SHT30;58451;51.550;7.208;2023-02-26T10:43:01;5.10;53.97
70830;SHT30;58451;51.550;7.208;2023-02-26T10:44:54;5.16;53.12
70830;SHT30;58451;51.550;7.208;2023-02-26T10:47:10;5.20;51.80
70830;SHT30;58451;51.550;7.208;2023-02-26T10:51:13;5.20;49.98
70830;SHT30;58451;51.550;7.208;2023-02-26T10:52:54;5.12;50.75
70830;SHT30;58451;51.550;7.208;2023-02-26T10:56:10;5.02;50.58
70830;SHT30;58451;51.550;7.208;2023-02-26T10:57:59;5.00;49.73
70830;SHT30;58451;51.550;7.208;2023-02-26T10:59:51;4.93;50.30
70830;SHT30;58451;51.550;7.208;2023-02-26T11:01:24;4.91;51.85
70830;SHT30;58451;51.550;7.208;2023-02-26T11:03:01;4.96;52.62
70830;SHT30;58451;51.550;7.208;2023-02-26T11:04:37;5.00;52.48
70830;SHT30;58451;51.550;7.208;2023-02-26T11:06:11;4.86;51.60
70830;SHT30;58451;51.550;7.208;2023-02-26T11:08:02;4.78;50.70
70830;SHT30;58451;51.550;7.208;2023-02-26T11:10:15;4.82;50.75
70830;SHT30;58451;51.550;7.208;2023-02-26T11:11:52;4.87;52.42
70830;SHT30;58451;51.550;7.208;2023-02-26T11:13:36;4.99;52.63
70830;SHT30;58451;51.550;7.208;2023-02-26T11:15:13;5.12;52.58
70830;SHT30;58451;51.550;7.208;2023-02-26T11:16:51;5.25;52.75
70830;SHT30;58451;51.550;7.208;2023-02-26T11:18:35;5.36;50.35
70830;SHT30;58451;51.550;7.208;2023-02-26T11:20:40;5.32;47.90
70830;SHT30;58451;51.550;7.208;2023-02-26T11:22:17;5.30;47.80
70830;SHT30;58451;51.550;7.208;2023-02-26T11:24:00;5.28;48.88
70830;SHT30;58451;51.550;7.208;2023-02-26T11:25:41;5.29;49.22
70830;SHT30;58451;51.550;7.208;2023-02-26T11:27:18;5.35;50.30
70830;SHT30;58451;51.550;7.208;2023-02-26T11:28:56;5.40;47.98
70830;SHT30;58451;51.550;7.208;2023-02-26T11:30:31;5.48;49.55
70830;SHT30;58451;51.550;7.208;2023-02-26T11:32:15;5.53;50.07
70830;SHT30;58451;51.550;7.208;2023-02-26T11:33:53;5.57;49.68
70830;SHT30;58451;51.550;7.208;2023-02-26T11:35:35;5.62;48.62
70830;SHT30;58451;51.550;7.208;2023-02-26T11:37:07;5.62;47.07